Time,TemperatureF,DewpointF,PressureIn,WindDirection,WindDirectionDegrees,WindSpeedMPH,WindSpeedGustMPH,Humidity,HourlyPrecipIn,Conditions,Clouds,dailyrainin,SolarRadiationWatts/m^2,SoftwareType,DateUTC
2013-11-11 10:52:00,52.0,21.0,-100.00,SSW,195,3.0,5.0,29,0.00,,,0.00,458.000000,,2013-11-11 17:52:00,
2013-11-11 11:42:00,57.0,19.0,-100.00,SSW,195,4.0,7.0,22,0.00,,,0.00,580.000000,,2013-11-11 18:42:00,
2013-11-11 11:52:00,57.0,19.0,-100.00,SSW,195,4.0,7.0,22,0.00,,,0.00,580.000000,,2013-11-11 18:52:00,
2013-11-11 12:22:00,60.0,18.0,-100.00,SW,225,6.0,10.0,19,0.00,,,0.00,645.000000,,2013-11-11 19:22:00,
2013-11-11 12:32:00,60.0,18.0,-100.00,SW,225,6.0,10.0,19,0.00,,,0.00,645.000000,,2013-11-11 19:32:00,
2013-11-11 12:42:00,60.0,18.0,-100.00,SW,225,6.0,10.0,19,0.00,,,0.00,645.000000,,2013-11-11 19:42:00,
2013-11-11 12:52:00,60.0,18.0,-100.00,SW,225,6.0,10.0,19,0.00,,,0.00,645.000000,,2013-11-11 19:52:00,
2013-11-11 13:22:00,62.0,11.0,-100.00,SW,218,4.0,11.0,13,0.00,,,0.00,646.000000,,2013-11-11 20:22:00,
2013-11-11 13:32:00,62.0,11.0,-100.00,SW,218,4.0,11.0,13,0.00,,,0.00,646.000000,,2013-11-11 20:32:00,
2013-11-11 13:42:00,62.0,11.0,-100.00,SW,218,4.0,11.0,13,0.00,,,0.00,646.000000,,2013-11-11 20:42:00,
2013-11-11 13:52:00,62.0,11.0,-100.00,SW,218,4.0,11.0,13,0.00,,,0.00,646.000000,,2013-11-11 20:52:00,
2013-11-11 14:21:00,63.0,11.0,-100.00,SW,216,5.0,11.0,13,0.00,,,0.00,583.000000,,2013-11-11 21:21:00,
2013-11-11 14:34:00,63.0,11.0,-100.00,SW,216,5.0,11.0,13,0.00,,,0.00,583.000000,,2013-11-11 21:34:00,
2013-11-11 14:43:00,63.0,11.0,-100.00,SW,216,5.0,11.0,13,0.00,,,0.00,583.000000,,2013-11-11 21:43:00,
2013-11-11 14:54:00,63.0,11.0,-100.00,SW,216,5.0,11.0,13,0.00,,,0.00,583.000000,,2013-11-11 21:54:00,
2013-11-11 15:23:00,63.0,15.0,-100.00,SW,223,6.0,12.0,15,0.00,,,0.00,460.000000,,2013-11-11 22:23:00,
2013-11-11 15:34:00,63.0,15.0,-100.00,SW,223,6.0,12.0,15,0.00,,,0.00,460.000000,,2013-11-11 22:34:00,
2013-11-11 15:43:00,63.0,15.0,-100.00,SW,223,6.0,12.0,15,0.00,,,0.00,460.000000,,2013-11-11 22:43:00,
2013-11-11 15:53:00,63.0,15.0,-100.00,SW,223,6.0,12.0,15,0.00,,,0.00,460.000000,,2013-11-11 22:53:00,
2013-11-11 16:22:00,62.0,12.0,-100.00,SSW,211,6.0,12.0,14,0.00,,,0.00,296.000000,,2013-11-11 23:22:00,
2013-11-11 16:33:00,62.0,12.0,-100.00,SSW,211,6.0,12.0,14,0.00,,,0.00,296.000000,,2013-11-11 23:33:00,
2013-11-11 16:42:00,62.0,12.0,-100.00,SSW,211,6.0,12.0,14,0.00,,,0.00,296.000000,,2013-11-11 23:42:00,
2013-11-11 16:53:00,62.0,12.0,-100.00,SSW,211,6.0,12.0,14,0.00,,,0.00,296.000000,,2013-11-11 23:53:00,
2013-11-11 17:22:00,57.0,14.0,-100.00,NW,314,6.0,11.0,18,0.00,,,0.00,104.000000,,2013-11-12 00:22:00,
2013-11-11 17:32:00,57.0,14.0,-100.00,NW,314,6.0,11.0,18,0.00,,,0.00,104.000000,,2013-11-12 00:32:00,
2013-11-11 17:42:00,57.0,14.0,-100.00,NW,314,6.0,11.0,18,0.00,,,0.00,104.000000,,2013-11-12 00:42:00,
2013-11-11 17:52:00,57.0,14.0,-100.00,NW,314,6.0,11.0,18,0.00,,,0.00,104.000000,,2013-11-12 00:52:00,
2013-11-11 18:21:00,51.0,14.0,-100.00,North,3,3.0,9.0,22,0.00,,,0.00,1.000000,,2013-11-12 01:21:00,
2013-11-11 18:32:00,51.0,14.0,-100.00,North,3,3.0,9.0,22,0.00,,,0.00,1.000000,,2013-11-12 01:32:00,
2013-11-11 18:42:00,51.0,14.0,-100.00,North,3,3.0,9.0,22,0.00,,,0.00,1.000000,,2013-11-12 01:42:00,
2013-11-11 18:52:00,51.0,14.0,-100.00,North,3,3.0,9.0,22,0.00,,,0.00,1.000000,,2013-11-12 01:52:00,
2013-11-11 19:22:00,48.0,15.0,-100.00,North,9,6.0,9.0,26,0.00,,,0.00,0.000000,,2013-11-12 02:22:00,
2013-11-11 19:32:00,48.0,15.0,-100.00,North,9,6.0,9.0,26,0.00,,,0.00,0.000000,,2013-11-12 02:32:00,
2013-11-11 19:42:00,48.0,15.0,-100.00,North,9,6.0,9.0,26,0.00,,,0.00,0.000000,,2013-11-12 02:42:00,
2013-11-11 22:53:00,43.0,13.0,-100.00,NNE,14,5.0,11.0,29,-99.99,,,-99.99,0.000000,,2013-11-12 05:53:00,